createdAt,value
2018-10-05T00:01:10.128Z,8.00
2018-10-05T00:02:10.137Z,8.20
2018-10-05T00:04:04.600Z,7.90
2018-10-05T00:05:04.574Z,8.40
2018-10-05T00:07:00.032Z,8.50
2018-10-05T00:07:59.032Z,9.00
2018-10-05T00:09:53.448Z,8.10
2018-10-05T00:10:53.445Z,8.50
2018-10-05T00:12:49.510Z,8.70
2018-10-05T00:13:49.396Z,8.50
2018-10-05T00:15:45.329Z,8.90
2018-10-05T00:16:45.834Z,8.90
2018-10-05T00:18:40.271Z,8.40
2018-10-05T00:19:40.271Z,8.70
2018-10-05T00:21:36.706Z,8.10
2018-10-05T00:22:35.655Z,8.40
2018-10-05T00:24:30.605Z,8.80
2018-10-05T00:25:30.605Z,8.10
2018-10-05T00:27:26.548Z,8.40
2018-10-05T00:28:26.026Z,7.80
2018-10-05T00:30:23.467Z,8.20
2018-10-05T00:31:20.454Z,8.20
2018-10-05T00:33:15.403Z,8.30
2018-10-05T00:34:14.889Z,8.30
2018-10-05T00:36:09.309Z,8.10
2018-10-05T00:37:09.316Z,8.60
2018-10-05T00:39:03.762Z,8.20
2018-10-05T00:40:03.766Z,7.90
2018-10-05T00:42:00.714Z,7.90
2018-10-05T00:42:59.662Z,7.80
2018-10-05T00:44:54.109Z,7.90
2018-10-05T00:45:54.074Z,8.70
2018-10-05T00:47:48.520Z,9.00
2018-10-05T00:48:48.531Z,8.70
2018-10-05T00:50:42.992Z,8.60
2018-10-05T00:51:42.968Z,8.10
2018-10-05T00:53:36.474Z,7.90
2018-10-05T00:54:36.386Z,8.10
2018-10-05T00:56:32.855Z,8.00
2018-10-05T00:57:32.317Z,8.20
2018-10-05T00:59:27.276Z,8.00
2018-10-05T01:00:26.765Z,7.90
2018-10-05T01:02:20.701Z,7.80
2018-10-05T01:03:20.175Z,7.30
2018-10-05T01:05:14.629Z,7.90
2018-10-05T01:06:14.605Z,7.80
2018-10-05T01:08:10.064Z,8.30
2018-10-05T01:09:09.039Z,9.00
2018-10-05T01:11:06.979Z,8.30
2018-10-05T01:12:04.984Z,8.20
2018-10-05T01:13:59.392Z,8.30
2018-10-05T01:14:59.394Z,8.60
2018-10-05T01:16:53.826Z,7.60
2018-10-05T01:17:53.816Z,7.80
2018-10-05T01:19:51.266Z,7.40
2018-10-05T01:20:49.749Z,8.30
2018-10-05T01:22:44.691Z,8.20
2018-10-05T01:23:44.164Z,7.70
2018-10-05T01:25:41.612Z,8.20
2018-10-05T01:26:40.091Z,8.60
2018-10-05T01:28:34.552Z,8.10
2018-10-05T01:29:34.520Z,8.20
2018-10-05T01:31:30.976Z,8.00
2018-10-05T01:32:30.425Z,8.90
2018-10-05T01:34:23.895Z,8.30
2018-10-05T01:35:23.850Z,8.50
2018-10-05T01:37:18.284Z,8.30
2018-10-05T01:38:18.275Z,7.90
2018-10-05T01:40:12.699Z,8.00
2018-10-05T01:41:12.716Z,7.60
2018-10-05T01:43:08.682Z,8.40
2018-10-05T01:44:08.634Z,8.90
2018-10-05T01:46:03.596Z,8.10
2018-10-05T01:47:03.056Z,7.80
2018-10-05T01:48:59.500Z,8.70
2018-10-05T01:49:58.969Z,9.40
2018-10-05T01:51:53.440Z,8.70
2018-10-05T01:52:53.395Z,8.70
2018-10-05T01:54:49.842Z,8.40
2018-10-05T01:55:49.356Z,8.50
2018-10-05T01:57:44.292Z,8.80
2018-10-05T01:58:43.769Z,8.10
2018-10-05T02:00:38.210Z,8.80
2018-10-05T02:01:38.226Z,9.20
2018-10-05T02:03:32.656Z,7.80
2018-10-05T02:04:32.668Z,8.20
2018-10-05T02:06:27.089Z,8.20
2018-10-05T02:07:27.075Z,8.30
2018-10-05T02:09:21.551Z,7.90
2018-10-05T02:10:21.532Z,8.30
2018-10-05T02:12:16.481Z,8.20
2018-10-05T02:13:15.942Z,7.90
2018-10-05T02:15:10.360Z,8.30
2018-10-05T02:16:10.359Z,8.30
2018-10-05T02:18:07.331Z,8.60
2018-10-05T02:19:06.322Z,8.50
2018-10-05T02:21:01.255Z,8.70
2018-10-05T02:22:00.735Z,9.10
2018-10-05T02:23:55.180Z,8.50
2018-10-05T02:24:55.690Z,8.30
2018-10-05T02:26:49.597Z,8.40
2018-10-05T02:27:49.609Z,8.20
2018-10-05T02:29:44.078Z,7.90
2018-10-05T02:30:45.557Z,8.00
2018-10-05T02:32:38.979Z,9.30
2018-10-05T02:33:38.467Z,7.90
2018-10-05T02:35:33.409Z,8.80
2018-10-05T02:36:33.413Z,8.20
2018-10-05T02:38:27.357Z,8.30
2018-10-05T02:39:27.346Z,8.30
2018-10-05T02:41:20.765Z,8.10
2018-10-05T02:42:20.769Z,7.50
2018-10-05T02:44:15.722Z,8.20
2018-10-05T02:45:16.726Z,8.60
2018-10-05T02:47:10.173Z,8.40
2018-10-05T02:48:09.634Z,8.30
2018-10-05T02:50:04.595Z,7.40
2018-10-05T02:51:04.071Z,7.90
2018-10-05T02:52:58.528Z,8.00
2018-10-05T02:53:58.521Z,7.90
2018-10-05T02:55:53.477Z,8.10
2018-10-05T02:56:52.960Z,7.90
2018-10-05T02:58:47.427Z,8.00
2018-10-05T02:59:47.378Z,8.20
2018-10-05T03:01:41.773Z,8.00
2018-10-05T03:02:41.775Z,7.70
2018-10-05T03:04:38.232Z,7.90
2018-10-05T03:05:37.698Z,8.00
2018-10-05T03:07:32.136Z,7.60
2018-10-05T03:08:32.141Z,8.80
2018-10-05T03:10:26.581Z,8.40
2018-10-05T03:11:26.566Z,8.70
2018-10-05T03:13:21.000Z,7.50
2018-10-05T03:14:20.979Z,8.30
2018-10-05T03:16:15.404Z,8.20
2018-10-05T03:17:15.948Z,7.90
2018-10-05T03:19:09.866Z,8.00
2018-10-05T03:20:09.855Z,7.00
2018-10-05T03:22:04.233Z,8.00
2018-10-05T03:23:04.244Z,8.40
2018-10-05T03:24:58.674Z,8.10
2018-10-05T03:25:58.675Z,8.00
2018-10-05T03:27:52.149Z,7.20
2018-10-05T03:28:52.099Z,7.70
2018-10-05T03:30:46.558Z,8.60
2018-10-05T03:31:47.046Z,8.70
2018-10-05T03:33:41.519Z,8.10
2018-10-05T03:34:40.974Z,7.90
2018-10-05T03:36:36.941Z,7.50
2018-10-05T03:37:36.902Z,7.80
2018-10-05T03:39:31.346Z,7.90
2018-10-05T03:40:31.324Z,7.60
2018-10-05T03:42:27.303Z,9.50
2018-10-05T03:43:27.276Z,8.20
2018-10-05T03:45:21.737Z,8.90
2018-10-05T03:46:22.242Z,8.40
2018-10-05T03:48:17.065Z,8.20
2018-10-05T03:49:16.120Z,8.40
2018-10-05T03:51:12.001Z,7.70
2018-10-05T03:52:10.540Z,8.00
2018-10-05T03:54:06.540Z,7.90
2018-10-05T03:55:06.499Z,8.90
2018-10-05T03:57:02.448Z,8.10
2018-10-05T03:58:02.930Z,8.50
2018-10-05T03:59:57.865Z,8.40
2018-10-05T04:00:56.859Z,8.00
2018-10-05T04:02:51.305Z,8.20
2018-10-05T04:03:51.272Z,8.30
2018-10-05T04:05:47.207Z,7.90
2018-10-05T04:06:47.197Z,8.30
2018-10-05T04:08:43.134Z,7.90
2018-10-05T04:09:43.148Z,8.30
2018-10-05T04:11:37.514Z,8.70
2018-10-05T04:12:37.515Z,8.80
2018-10-05T04:14:31.999Z,8.70
2018-10-05T04:15:31.941Z,8.90
2018-10-05T04:17:27.380Z,8.10
2018-10-05T04:18:27.934Z,7.70
2018-10-05T04:20:19.795Z,7.60
2018-10-05T04:21:19.815Z,7.90
2018-10-05T04:23:14.242Z,8.00
2018-10-05T04:24:14.248Z,7.70
2018-10-05T04:26:10.705Z,9.00
2018-10-05T04:27:10.284Z,8.70
2018-10-05T04:29:05.172Z,8.00
2018-10-05T04:30:04.672Z,7.70
2018-10-05T04:31:58.650Z,7.90
2018-10-05T04:32:58.059Z,8.00
2018-10-05T04:34:53.984Z,7.90
2018-10-05T04:35:53.996Z,8.20
2018-10-05T04:37:51.373Z,7.70
2018-10-05T04:38:49.936Z,8.20
2018-10-05T04:40:47.404Z,8.70
2018-10-05T04:41:45.891Z,7.60
2018-10-05T04:43:41.847Z,8.60
2018-10-05T04:44:41.803Z,7.30
2018-10-05T04:46:36.257Z,8.50
2018-10-05T04:47:36.238Z,8.10
2018-10-05T04:49:37.234Z,7.20
2018-10-05T04:50:33.114Z,7.10
2018-10-05T04:52:26.590Z,7.90
2018-10-05T04:53:26.582Z,7.80
2018-10-05T04:55:20.996Z,8.10
2018-10-05T04:56:21.001Z,8.10
2018-10-05T04:58:15.453Z,8.10
2018-10-05T04:59:15.425Z,8.30
2018-10-05T05:01:09.368Z,7.20
2018-10-05T05:02:08.855Z,7.70
2018-10-05T05:04:04.819Z,8.20
2018-10-05T05:05:04.768Z,7.70
2018-10-05T05:07:00.154Z,8.70
2018-10-05T05:07:59.250Z,7.80
2018-10-05T05:09:53.694Z,8.40
2018-10-05T05:10:54.162Z,7.20
2018-10-05T05:12:50.135Z,7.80
2018-10-05T05:13:49.646Z,8.00
2018-10-05T05:15:46.101Z,8.20
2018-10-05T05:16:45.611Z,8.60
2018-10-05T05:18:40.009Z,8.60
2018-10-05T05:19:40.586Z,8.70
2018-10-05T05:21:34.949Z,8.30
2018-10-05T05:22:33.405Z,8.20
2018-10-05T05:24:28.379Z,8.50
2018-10-05T05:25:29.374Z,8.30
2018-10-05T05:27:22.276Z,8.70
2018-10-05T05:28:22.797Z,8.40
2018-10-05T05:30:21.220Z,8.20
2018-10-05T05:31:20.358Z,8.10
2018-10-05T05:33:14.783Z,8.60
2018-10-05T05:34:14.808Z,8.30
2018-10-05T05:36:10.746Z,9.30
2018-10-05T05:37:10.740Z,8.20
2018-10-05T05:39:08.674Z,7.80
2018-10-05T05:40:06.718Z,7.60
2018-10-05T05:42:01.085Z,8.60
2018-10-05T05:43:01.085Z,9.00
2018-10-05T05:44:56.552Z,8.40
2018-10-05T05:45:56.365Z,8.50
2018-10-05T05:47:50.841Z,8.00
2018-10-05T05:48:50.805Z,8.10
2018-10-05T05:50:47.269Z,9.50
2018-10-05T05:51:46.727Z,8.30
2018-10-05T05:53:41.172Z,8.20
2018-10-05T05:54:41.152Z,8.80
2018-10-05T05:56:36.110Z,8.50
2018-10-05T05:57:35.588Z,7.80
2018-10-05T05:59:29.031Z,8.60
2018-10-05T06:00:29.559Z,8.00
2018-10-05T06:02:24.993Z,8.60
2018-10-05T06:03:25.475Z,8.20
2018-10-05T06:05:19.380Z,9.00
2018-10-05T06:06:19.390Z,8.90
2018-10-05T06:08:13.931Z,8.60
2018-10-05T06:09:13.810Z,7.90
2018-10-05T06:11:08.238Z,8.70
2018-10-05T06:12:08.235Z,9.60
2018-10-05T06:14:04.184Z,8.60
2018-10-05T06:15:02.656Z,8.00
2018-10-05T06:16:57.136Z,8.30
2018-10-05T06:17:57.098Z,8.10
2018-10-05T06:19:51.557Z,9.20
2018-10-05T06:20:51.547Z,8.30
2018-10-05T06:22:45.965Z,7.70
2018-10-05T06:23:45.956Z,8.60
2018-10-05T06:25:40.397Z,9.10
2018-10-05T06:26:41.334Z,9.10
2018-10-05T06:28:34.796Z,9.00
2018-10-05T06:29:34.808Z,8.40
2018-10-05T06:31:28.250Z,7.60
2018-10-05T06:32:28.760Z,8.10
2018-10-05T06:34:22.639Z,8.30
2018-10-05T06:35:24.095Z,9.20
2018-10-05T06:37:17.614Z,8.40
2018-10-05T06:38:17.173Z,8.00
2018-10-05T06:40:13.038Z,7.80
2018-10-05T06:41:13.010Z,7.70
2018-10-05T06:43:06.463Z,7.70
2018-10-05T06:44:06.443Z,8.00
2018-10-05T06:46:00.887Z,8.80
2018-10-05T06:47:00.870Z,8.60
2018-10-05T06:48:55.294Z,8.30
2018-10-05T06:49:55.290Z,7.90
2018-10-05T06:51:49.727Z,7.90
2018-10-05T06:52:49.694Z,8.70
2018-10-05T06:54:45.167Z,10.10
2018-10-05T06:55:44.126Z,8.20
2018-10-05T06:57:38.585Z,7.80
2018-10-05T06:58:38.543Z,7.60
2018-10-05T07:00:32.993Z,8.00
2018-10-05T07:01:32.091Z,7.60
2018-10-05T07:03:26.402Z,7.20
2018-10-05T07:04:26.925Z,8.00
2018-10-05T07:06:23.332Z,7.10
2018-10-05T07:07:22.328Z,7.50
2018-10-05T07:09:18.278Z,8.20
2018-10-05T07:10:18.274Z,8.20
2018-10-05T07:12:14.709Z,7.30
2018-10-05T07:13:14.196Z,7.10
2018-10-05T07:15:08.682Z,7.00
2018-10-05T07:16:08.621Z,7.10
2018-10-05T07:18:06.060Z,7.10
2018-10-05T07:19:04.547Z,8.70
2018-10-05T07:21:00.509Z,7.50
2018-10-05T07:22:00.485Z,7.30
2018-10-05T07:23:58.422Z,7.00
2018-10-05T07:24:58.410Z,8.40
2018-10-05T07:26:54.336Z,7.40
2018-10-05T07:27:54.354Z,7.60
2018-10-05T07:29:50.317Z,7.80
2018-10-05T07:30:50.785Z,7.70
2018-10-05T07:32:46.265Z,7.00
2018-10-05T07:33:47.215Z,7.30
2018-10-05T07:35:43.676Z,8.10
2018-10-05T07:36:42.190Z,6.50
2018-10-05T07:38:38.125Z,7.10
2018-10-05T07:39:38.101Z,7.00
2018-10-05T07:41:34.550Z,6.70
2018-10-05T07:42:34.003Z,6.70
2018-10-05T07:44:29.970Z,6.90
2018-10-05T07:45:29.922Z,7.30
2018-10-05T07:47:25.904Z,7.10
2018-10-05T07:48:25.849Z,7.60
2018-10-05T07:50:23.313Z,7.50
2018-10-05T07:51:21.790Z,6.90
2018-10-05T07:53:17.730Z,6.90
2018-10-05T07:54:17.708Z,6.30
2018-10-05T07:56:14.176Z,6.60
2018-10-05T07:57:13.652Z,7.10
2018-10-05T07:59:09.616Z,7.50
2018-10-05T08:00:09.577Z,6.50
2018-10-05T08:02:06.042Z,6.90
2018-10-05T08:03:05.478Z,6.20
2018-10-05T08:05:01.478Z,7.50
2018-10-05T08:06:01.450Z,7.00
2018-10-05T08:07:58.370Z,7.50
2018-10-05T08:08:57.339Z,6.50
2018-10-05T08:10:53.801Z,6.40
2018-10-05T08:11:53.263Z,6.30
2018-10-05T08:13:49.259Z,6.10
2018-10-05T08:14:49.202Z,6.30
2018-10-05T08:16:46.156Z,6.40
2018-10-05T08:17:45.237Z,6.30
2018-10-05T08:19:41.184Z,6.40
2018-10-05T08:20:41.189Z,5.90
2018-10-05T08:22:38.634Z,6.20
2018-10-05T08:23:37.122Z,6.20
2018-10-05T08:25:32.074Z,6.20
2018-10-05T08:26:32.065Z,6.20
2018-10-05T08:28:27.518Z,6.80
2018-10-05T08:29:27.497Z,6.40
2018-10-05T08:31:23.453Z,6.50
2018-10-05T08:32:23.411Z,6.20
2018-10-05T08:34:19.469Z,6.40
2018-10-05T08:35:19.350Z,6.90
2018-10-05T08:37:16.314Z,6.40
2018-10-05T08:38:15.280Z,6.30
2018-10-05T08:40:09.775Z,6.70
2018-10-05T08:41:09.730Z,6.80
2018-10-05T08:43:04.714Z,6.40
2018-10-05T08:44:04.172Z,6.60
2018-10-05T08:46:00.175Z,6.10
2018-10-05T08:47:00.091Z,6.00
2018-10-05T08:48:57.037Z,6.80
2018-10-05T08:49:56.067Z,6.50
2018-10-05T08:51:52.051Z,6.00
2018-10-05T08:52:51.951Z,6.80
2018-10-05T08:54:47.912Z,6.40
2018-10-05T08:55:47.895Z,6.30
2018-10-05T08:57:43.859Z,7.00
2018-10-05T08:58:43.835Z,6.80
2018-10-05T09:00:38.430Z,6.70
2018-10-05T09:01:38.277Z,6.60
2018-10-05T09:03:33.238Z,6.60
2018-10-05T09:04:33.236Z,6.80
2018-10-05T09:06:27.690Z,6.80
2018-10-05T09:07:27.174Z,5.70
2018-10-05T09:09:23.644Z,6.10
2018-10-05T09:10:23.111Z,5.90
2018-10-05T09:12:19.607Z,6.00
2018-10-05T09:13:19.022Z,5.90
2018-10-05T09:15:15.048Z,6.10
2018-10-05T09:16:15.053Z,5.90
2018-10-05T09:18:09.554Z,5.30
2018-10-05T09:19:09.521Z,5.10
2018-10-05T09:21:05.474Z,5.00
2018-10-05T09:22:06.961Z,5.80
2018-10-05T09:24:01.974Z,5.80
2018-10-05T09:25:02.395Z,5.40
2018-10-05T09:26:59.358Z,5.40
2018-10-05T09:27:57.394Z,5.10
2018-10-05T09:29:54.340Z,5.60
2018-10-05T09:30:54.350Z,5.30
2018-10-05T09:32:48.806Z,5.80
2018-10-05T09:33:47.787Z,6.10
2018-10-05T09:35:42.230Z,5.90
2018-10-05T09:36:42.224Z,5.20
2018-10-05T09:38:38.214Z,6.10
2018-10-05T09:39:38.162Z,5.30
2018-10-05T09:41:34.618Z,5.90
2018-10-05T09:42:34.074Z,5.90
2018-10-05T09:44:30.544Z,4.80
2018-10-05T09:45:30.528Z,4.90
2018-10-05T09:47:25.965Z,5.00
2018-10-05T09:48:25.955Z,4.80
2018-10-05T09:50:22.442Z,4.60
2018-10-05T09:51:21.888Z,5.10
2018-10-05T09:53:16.381Z,5.40
2018-10-05T09:54:16.354Z,5.00
2018-10-05T09:56:12.832Z,5.10
2018-10-05T09:57:12.302Z,5.30
2018-10-05T09:59:08.271Z,5.10
2018-10-05T10:00:08.817Z,5.10
2018-10-05T10:02:04.204Z,4.50
2018-10-05T10:03:04.154Z,5.20
2018-10-05T10:05:00.139Z,5.00
2018-10-05T10:06:00.086Z,4.90
2018-10-05T10:07:54.619Z,4.40
2018-10-05T10:08:54.542Z,5.10
2018-10-05T10:10:50.983Z,5.30
2018-10-05T10:11:50.994Z,5.00
2018-10-05T10:13:46.505Z,5.10
2018-10-05T10:14:46.424Z,4.60
2018-10-05T10:16:42.889Z,4.90
2018-10-05T10:17:42.389Z,5.00
2018-10-05T10:19:38.364Z,4.80
2018-10-05T10:20:38.848Z,4.80
2018-10-05T10:22:34.310Z,5.60
2018-10-05T10:23:34.273Z,4.80
2018-10-05T10:25:28.738Z,4.70
2018-10-05T10:26:28.716Z,4.70
2018-10-05T10:28:25.246Z,5.70
2018-10-05T10:29:24.752Z,5.00
2018-10-05T10:31:20.144Z,4.30
2018-10-05T10:32:20.130Z,4.60
2018-10-05T10:34:15.102Z,5.20
2018-10-05T10:35:15.079Z,5.00
2018-10-05T10:37:12.041Z,4.50
2018-10-05T10:38:11.041Z,4.70
2018-10-05T10:40:07.992Z,6.00
2018-10-05T10:41:07.014Z,4.50
2018-10-05T10:43:02.950Z,4.40
2018-10-05T10:44:03.466Z,4.40
2018-10-05T10:45:58.945Z,4.40
2018-10-05T10:46:58.907Z,4.60
2018-10-05T10:48:55.860Z,4.70
2018-10-05T10:49:54.855Z,4.60
2018-10-05T10:51:49.322Z,5.20
2018-10-05T10:52:49.293Z,4.10
2018-10-05T10:54:45.269Z,3.80
2018-10-05T10:55:45.245Z,4.30
2018-10-05T10:57:41.206Z,4.00
2018-10-05T10:58:42.707Z,3.40
2018-10-05T11:00:37.172Z,4.00
2018-10-05T11:01:37.150Z,3.60
2018-10-05T11:03:33.603Z,4.40
2018-10-05T11:04:33.135Z,4.00
2018-10-05T11:06:29.545Z,4.00
2018-10-05T11:07:29.055Z,4.10
2018-10-05T11:09:26.985Z,4.10
2018-10-05T11:10:24.995Z,3.90
2018-10-05T11:12:21.945Z,3.80
2018-10-05T11:13:21.917Z,4.50
2018-10-05T11:15:17.900Z,4.30
2018-10-05T11:16:17.885Z,4.20
2018-10-05T11:18:14.839Z,4.30
2018-10-05T11:19:13.852Z,4.10
2018-10-05T11:21:09.812Z,3.90
2018-10-05T11:22:09.781Z,4.20
2018-10-05T11:24:05.715Z,4.10
2018-10-05T11:25:05.737Z,3.50
2018-10-05T11:27:01.711Z,4.10
2018-10-05T11:28:01.701Z,3.70
2018-10-05T11:29:57.645Z,3.80
2018-10-05T11:30:57.640Z,4.10
2018-10-05T11:32:55.324Z,3.80
2018-10-05T11:33:53.758Z,3.80
2018-10-05T11:36:02.145Z,4.30
2018-10-05T11:37:02.263Z,4.10
2018-10-05T11:38:56.650Z,3.80
2018-10-05T11:39:56.626Z,4.50
2018-10-05T11:41:54.089Z,4.00
2018-10-05T11:42:52.548Z,4.00
2018-10-05T11:44:48.476Z,4.00
2018-10-05T11:45:48.485Z,4.20
2018-10-05T11:47:44.495Z,4.20
2018-10-05T11:48:44.455Z,4.40
2018-10-05T11:50:40.385Z,4.20
2018-10-05T11:51:40.420Z,3.70
2018-10-05T11:53:37.847Z,3.90
2018-10-05T11:54:36.355Z,3.90
2018-10-05T11:56:32.280Z,3.50
2018-10-05T11:57:32.310Z,3.60
2018-10-05T11:59:28.267Z,3.60
2018-10-05T12:00:28.278Z,3.70
2018-10-05T12:02:24.740Z,4.00
2018-10-05T12:03:25.136Z,3.90
2018-10-05T12:05:20.156Z,3.70
2018-10-05T12:06:20.257Z,3.30
2018-10-05T12:08:16.084Z,3.70
2018-10-05T12:09:16.055Z,3.80
2018-10-05T12:11:12.046Z,4.00
2018-10-05T12:12:12.005Z,4.10
2018-10-05T12:14:06.970Z,3.20
2018-10-05T12:15:06.482Z,4.00
2018-10-05T12:17:02.399Z,3.50
2018-10-05T12:18:02.404Z,3.90
2018-10-05T12:19:55.882Z,3.60
2018-10-05T12:20:56.373Z,4.00
2018-10-05T12:22:52.051Z,3.80
2018-10-05T12:23:50.311Z,3.70
2018-10-05T12:25:44.793Z,3.70
2018-10-05T12:26:44.876Z,3.50
2018-10-05T12:28:41.235Z,3.60
2018-10-05T12:29:40.715Z,4.20
2018-10-05T12:31:35.123Z,4.20
2018-10-05T12:32:35.670Z,4.00
2018-10-05T12:34:31.121Z,3.90
2018-10-05T12:35:31.124Z,3.10
2018-10-05T12:37:25.550Z,3.80
2018-10-05T12:38:25.567Z,3.30
2018-10-05T12:40:20.077Z,3.50
2018-10-05T12:41:20.040Z,3.60
2018-10-05T12:43:16.006Z,3.50
2018-10-05T12:44:15.974Z,3.30
2018-10-05T12:46:11.458Z,3.60
2018-10-05T12:47:11.069Z,4.10
2018-10-05T12:49:07.530Z,3.90
2018-10-05T12:50:07.048Z,4.00
2018-10-05T12:52:03.483Z,4.50
2018-10-05T12:53:02.952Z,4.20
2018-10-05T12:55:01.411Z,3.90
2018-10-05T12:56:01.064Z,3.30
2018-10-05T12:57:57.025Z,3.50
2018-10-05T12:58:57.053Z,3.60
2018-10-05T13:00:53.021Z,3.60
2018-10-05T13:01:54.018Z,3.40
2018-10-05T13:03:49.983Z,3.20
2018-10-05T13:04:49.002Z,3.00
2018-10-05T13:06:43.958Z,3.50
2018-10-05T13:07:43.420Z,3.40
2018-10-05T13:09:37.386Z,3.30
2018-10-05T13:10:36.863Z,3.30
2018-10-05T13:12:32.837Z,2.90
2018-10-05T13:13:33.146Z,3.50
2018-10-05T13:15:28.850Z,4.30
2018-10-05T13:16:29.299Z,3.60
2018-10-05T13:18:24.720Z,3.00
2018-10-05T13:19:25.271Z,3.50
2018-10-05T13:21:20.735Z,3.70
2018-10-05T13:22:20.745Z,3.50
2018-10-05T13:24:16.690Z,3.50
2018-10-05T13:25:16.702Z,3.60
2018-10-05T13:27:13.141Z,3.20
2018-10-05T13:28:12.128Z,3.30
2018-10-05T13:30:09.720Z,3.60
2018-10-05T13:31:09.688Z,3.80
2018-10-05T13:33:05.150Z,3.60
2018-10-05T13:34:05.198Z,3.70
2018-10-05T13:35:59.598Z,3.20
2018-10-05T13:36:59.582Z,3.80
2018-10-05T13:38:54.032Z,3.10
2018-10-05T13:39:54.040Z,2.90
2018-10-05T13:41:48.562Z,3.10
2018-10-05T13:42:48.447Z,3.20
2018-10-05T13:44:55.862Z,3.30
2018-10-05T13:45:56.558Z,3.20
2018-10-05T13:48:05.319Z,3.50
2018-10-05T13:49:05.305Z,3.10
2018-10-05T13:51:00.233Z,4.00
2018-10-05T13:51:59.706Z,4.10
2018-10-05T13:53:56.680Z,3.60
2018-10-05T13:54:55.712Z,3.80
2018-10-05T13:56:50.159Z,3.90
2018-10-05T13:57:50.154Z,3.30
2018-10-05T13:59:43.587Z,3.30
2018-10-05T14:00:43.611Z,3.30
2018-10-05T14:02:38.119Z,3.60
2018-10-05T14:03:38.051Z,3.50
2018-10-05T14:05:34.524Z,3.60
2018-10-05T14:06:34.010Z,3.50
2018-10-05T14:08:28.439Z,3.80
2018-10-05T14:09:28.957Z,3.80
2018-10-05T14:11:22.872Z,3.30
2018-10-05T14:12:22.879Z,3.70
2018-10-05T14:14:19.515Z,3.20
2018-10-05T14:15:18.846Z,3.20
2018-10-05T14:17:15.807Z,3.00
2018-10-05T14:18:14.873Z,2.90
2018-10-05T14:20:09.806Z,3.30
2018-10-05T14:21:09.306Z,3.20
2018-10-05T14:23:02.791Z,2.90
2018-10-05T14:24:02.749Z,3.40
2018-10-05T14:25:57.227Z,3.00
2018-10-05T14:26:57.243Z,3.00
2018-10-05T14:28:53.175Z,3.40
2018-10-05T14:29:53.175Z,3.20
2018-10-05T14:31:47.580Z,3.40
2018-10-05T14:32:47.628Z,3.60
2018-10-05T14:34:42.063Z,2.80
2018-10-05T14:35:42.555Z,3.40
2018-10-05T14:37:37.025Z,3.50
2018-10-05T14:38:37.929Z,3.50
2018-10-05T14:40:33.972Z,3.90
2018-10-05T14:41:32.573Z,3.60
2018-10-05T14:43:29.012Z,3.80
2018-10-05T14:44:29.495Z,3.70
2018-10-05T14:46:24.519Z,3.50
2018-10-05T14:47:24.484Z,3.80
2018-10-05T14:49:19.969Z,3.10
2018-10-05T14:50:19.450Z,3.10
2018-10-05T14:52:17.934Z,3.20
2018-10-05T14:53:17.220Z,3.70
2018-10-05T14:55:11.505Z,3.50
2018-10-05T14:57:28.077Z,3.60
2018-10-05T14:58:27.997Z,3.90
2018-10-05T15:00:23.954Z,3.60
2018-10-05T15:01:24.963Z,3.50
2018-10-05T15:03:19.921Z,3.40
2018-10-05T15:04:19.904Z,3.20
2018-10-05T15:06:16.375Z,3.30
2018-10-05T15:07:15.989Z,3.40
2018-10-05T15:09:11.841Z,3.20
2018-10-05T15:10:11.821Z,2.80
2018-10-05T15:12:05.488Z,3.10
2018-10-05T15:13:05.545Z,2.80
2018-10-05T15:15:02.951Z,3.80
2018-10-05T15:16:01.939Z,3.70
2018-10-05T15:17:54.913Z,2.90
2018-10-05T15:18:54.923Z,3.50
2018-10-05T15:20:51.879Z,3.10
2018-10-05T15:21:50.870Z,3.30
2018-10-05T15:23:44.303Z,3.70
2018-10-05T15:24:44.342Z,3.90
2018-10-05T15:26:40.784Z,3.10
2018-10-05T15:27:40.287Z,3.30
2018-10-05T15:29:38.774Z,4.00
2018-10-05T15:31:52.258Z,3.40
2018-10-05T15:32:52.247Z,3.70
2018-10-05T15:34:47.196Z,3.40
2018-10-05T15:35:47.683Z,3.20
2018-10-05T15:37:41.148Z,3.30
2018-10-05T15:38:40.173Z,3.30
2018-10-05T15:40:35.098Z,3.10
2018-10-05T15:41:34.759Z,3.00
2018-10-05T15:43:31.593Z,3.80
2018-10-05T15:44:31.560Z,3.60
2018-10-05T15:46:27.118Z,3.90
2018-10-05T15:47:27.602Z,4.00
2018-10-05T15:49:34.682Z,3.60
2018-10-05T15:50:34.349Z,3.40
2018-10-05T15:52:30.318Z,4.60
2018-10-05T15:53:30.309Z,3.70
2018-10-05T15:55:26.245Z,3.70
2018-10-05T15:56:27.245Z,3.60
2018-10-05T15:58:21.558Z,3.70
2018-10-05T15:59:21.566Z,3.20
2018-10-05T16:01:16.015Z,3.50
2018-10-05T16:02:17.019Z,5.60
2018-10-05T16:04:11.990Z,4.10
2018-10-05T16:05:12.564Z,3.80
2018-10-05T16:07:06.463Z,3.80
2018-10-05T16:08:06.443Z,4.20
2018-10-05T16:10:02.429Z,3.50
2018-10-05T16:11:03.422Z,3.40
2018-10-05T16:12:57.464Z,3.90
2018-10-05T16:13:56.871Z,3.70
2018-10-05T16:15:52.922Z,3.70
2018-10-05T16:16:53.847Z,3.50
2018-10-05T16:18:49.401Z,3.90
2018-10-05T16:19:48.942Z,3.80
2018-10-05T16:21:44.897Z,3.50
2018-10-05T16:22:44.849Z,3.60
2018-10-05T16:24:39.373Z,3.60
2018-10-05T16:25:39.854Z,3.20
2018-10-05T16:27:34.257Z,36.90
2018-10-05T16:28:33.755Z,8.30
2018-10-05T16:30:29.713Z,4.50
2018-10-05T16:31:30.764Z,3.80
2018-10-05T16:33:25.658Z,4.20
2018-10-05T16:34:25.662Z,4.00
2018-10-05T16:36:22.664Z,3.50
2018-10-05T16:37:21.642Z,3.80
2018-10-05T16:39:16.078Z,3.70
2018-10-05T16:40:16.589Z,3.60
2018-10-05T16:42:11.074Z,3.80
2018-10-05T16:43:11.030Z,3.50
2018-10-05T16:45:07.477Z,3.50
2018-10-05T16:46:06.741Z,3.50
2018-10-05T16:48:03.702Z,3.80
2018-10-05T16:49:02.675Z,3.60
2018-10-05T16:50:57.113Z,3.70
2018-10-05T16:51:57.117Z,3.80
2018-10-05T16:53:53.592Z,3.40
2018-10-05T16:54:53.085Z,3.50
2018-10-05T16:56:50.064Z,3.40
2018-10-05T16:57:49.386Z,4.30
2018-10-05T16:59:45.364Z,4.40
2018-10-05T17:00:45.335Z,4.00
2018-10-05T17:02:41.818Z,3.40
2018-10-05T17:03:41.335Z,3.40
2018-10-05T17:05:38.739Z,3.90
2018-10-05T17:06:37.271Z,4.00
2018-10-05T17:08:32.203Z,4.30
2018-10-05T17:09:32.213Z,4.40
2018-10-05T17:11:27.686Z,4.70
2018-10-05T17:12:28.159Z,4.60
2018-10-05T17:14:23.565Z,4.00
2018-10-05T17:15:23.596Z,4.30
2018-10-05T17:17:19.616Z,4.30
2018-10-05T17:18:19.527Z,4.60
2018-10-05T17:20:15.508Z,4.30
2018-10-05T17:21:15.473Z,4.40
2018-10-05T17:23:11.938Z,4.70
2018-10-05T17:24:11.443Z,5.10
2018-10-05T17:26:07.376Z,4.60
2018-10-05T17:27:07.380Z,4.70
2018-10-05T17:29:03.856Z,4.50
2018-10-05T17:30:03.340Z,4.90
2018-10-05T17:32:00.284Z,4.80
2018-10-05T17:32:59.796Z,5.20
2018-10-05T17:34:55.289Z,4.70
2018-10-05T17:35:55.230Z,5.00
2018-10-05T17:37:51.191Z,5.70
2018-10-05T17:38:51.685Z,4.60
2018-10-05T17:40:46.136Z,5.00
2018-10-05T17:41:45.640Z,4.50
2018-10-05T17:43:41.096Z,4.30
2018-10-05T17:44:40.086Z,4.20
2018-10-05T17:46:35.055Z,4.60
2018-10-05T17:47:35.040Z,4.60
2018-10-05T17:49:30.468Z,4.60
2018-10-05T17:50:30.525Z,5.20
2018-10-05T17:52:26.422Z,4.30
2018-10-05T17:53:24.896Z,4.00
2018-10-05T17:55:19.361Z,4.90
2018-10-05T17:56:19.319Z,5.00
2018-10-05T17:58:16.281Z,4.90
2018-10-05T17:59:15.275Z,5.00
2018-10-05T18:01:11.221Z,4.70
2018-10-05T18:02:11.220Z,5.40
2018-10-05T18:04:07.155Z,4.80
2018-10-05T18:05:07.679Z,4.40
2018-10-05T18:07:01.625Z,4.70
2018-10-05T18:08:03.130Z,4.60
2018-10-05T18:09:56.049Z,4.80
2018-10-05T18:10:56.579Z,4.80
2018-10-05T18:12:51.010Z,4.60
2018-10-05T18:13:51.003Z,4.40
2018-10-05T18:15:46.433Z,4.20
2018-10-05T18:16:46.456Z,5.10
2018-10-05T18:18:40.413Z,4.70
2018-10-05T18:19:39.934Z,4.60
2018-10-05T18:21:35.908Z,5.40
2018-10-05T18:22:35.849Z,5.10
2018-10-05T18:24:31.817Z,4.50
2018-10-05T18:25:31.806Z,5.00
2018-10-05T18:27:27.776Z,4.50
2018-10-05T18:28:27.733Z,4.80
2018-10-05T18:30:22.706Z,4.60
2018-10-05T18:31:22.204Z,4.30
2018-10-05T18:33:17.656Z,5.00
2018-10-05T18:34:17.165Z,4.90
2018-10-05T18:36:13.623Z,4.70
2018-10-05T18:37:12.610Z,4.40
2018-10-05T18:39:09.587Z,5.20
2018-10-05T18:40:08.554Z,4.80
2018-10-05T18:42:04.513Z,4.70
2018-10-05T18:43:05.034Z,5.10
2018-10-05T18:44:57.929Z,5.60
2018-10-05T18:45:58.449Z,4.90
2018-10-05T18:47:56.384Z,5.20
2018-10-05T18:48:55.858Z,5.30
2018-10-05T18:50:50.374Z,4.90
2018-10-05T18:51:50.310Z,5.20
2018-10-05T18:53:46.314Z,4.90
2018-10-05T18:54:46.765Z,4.80
2018-10-05T18:56:40.732Z,4.90
2018-10-05T18:57:40.745Z,4.60
2018-10-05T18:59:36.752Z,5.60
2018-10-05T19:00:36.685Z,5.10
2018-10-05T19:02:32.657Z,4.50
2018-10-05T19:03:32.651Z,5.00
2018-10-05T19:05:28.616Z,4.70
2018-10-05T19:06:29.106Z,5.00
2018-10-05T19:08:23.041Z,5.30
2018-10-05T19:09:23.047Z,5.10
2018-10-05T19:11:19.530Z,4.70
2018-10-05T19:12:19.028Z,5.40
2018-10-05T19:14:14.989Z,5.00
2018-10-05T19:15:14.955Z,5.30
2018-10-05T19:17:10.930Z,5.70
2018-10-05T19:18:10.900Z,5.50
2018-10-05T19:20:07.355Z,5.60
2018-10-05T19:21:06.848Z,6.30
2018-10-05T19:23:01.314Z,5.70
2018-10-05T19:24:01.298Z,6.50
2018-10-05T19:25:56.286Z,6.80
2018-10-05T19:26:55.790Z,6.80
2018-10-05T19:28:51.695Z,6.50